sensor_id;sensor_type;location;lat;lon;timestamp;P1;durP1;ratioP1;P2;durP2;ratioP2
22184;SDS011;11258;52.516;13.318;2023-04-19T00:00:02;7.03;;;3.53;;
22184;SDS011;11258;52.516;13.318;2023-04-19T00:02:32;6.63;;;3.07;;
22184;SDS011;11258;52.516;13.318;2023-04-19T00:04:58;5.17;;;2.17;;
22184;SDS011;11258;52.516;13.318;2023-04-19T00:07:23;7.20;;;3.40;;
22184;SDS011;11258;52.516;13.318;2023-04-19T00:09:49;4.83;;;3.00;;
22184;SDS011;11258;52.516;13.318;2023-04-19T00:12:14;8.00;;;2.90;;
22184;SDS011;11258;52.516;13.318;2023-04-19T00:14:40;7.10;;;3.17;;
22184;SDS011;11258;52.516;13.318;2023-04-19T00:17:06;7.00;;;2.87;;
22184;SDS011;11258;52.516;13.318;2023-04-19T00:19:31;7.57;;;3.40;;
22184;SDS011;11258;52.516;13.318;2023-04-19T00:21:57;5.30;;;2.47;;
22184;SDS011;11258;52.516;13.318;2023-04-19T00:24:23;6.00;;;3.07;;
22184;SDS011;11258;52.516;13.318;2023-04-19T00:26:48;6.00;;;2.90;;
22184;SDS011;11258;52.516;13.318;2023-04-19T00:29:14;4.90;;;2.90;;
22184;SDS011;11258;52.516;13.318;2023-04-19T00:31:40;5.13;;;2.60;;
22184;SDS011;11258;52.516;13.318;2023-04-19T00:34:05;6.80;;;2.80;;
22184;SDS011;11258;52.516;13.318;2023-04-19T00:36:31;7.53;;;2.80;;
22184;SDS011;11258;52.516;13.318;2023-04-19T00:38:57;5.90;;;3.23;;
22184;SDS011;11258;52.516;13.318;2023-04-19T00:41:22;10.53;;;2.90;;
22184;SDS011;11258;52.516;13.318;2023-04-19T00:43:48;6.23;;;2.90;;
22184;SDS011;11258;52.516;13.318;2023-04-19T00:46:13;7.27;;;2.70;;
22184;SDS011;11258;52.516;13.318;2023-04-19T00:48:39;3.77;;;2.33;;
22184;SDS011;11258;52.516;13.318;2023-04-19T00:51:05;5.37;;;2.70;;
22184;SDS011;11258;52.516;13.318;2023-04-19T00:53:32;4.93;;;2.70;;
22184;SDS011;11258;52.516;13.318;2023-04-19T00:55:58;6.53;;;2.73;;
22184;SDS011;11258;52.516;13.318;2023-04-19T00:58:26;5.43;;;2.60;;
22184;SDS011;11258;52.516;13.318;2023-04-19T01:00:55;4.53;;;2.53;;
22184;SDS011;11258;52.516;13.318;2023-04-19T01:03:21;6.43;;;3.13;;
22184;SDS011;11258;52.516;13.318;2023-04-19T01:05:46;8.67;;;2.70;;
22184;SDS011;11258;52.516;13.318;2023-04-19T01:08:12;4.93;;;2.60;;
22184;SDS011;11258;52.516;13.318;2023-04-19T01:10:38;6.27;;;2.67;;
22184;SDS011;11258;52.516;13.318;2023-04-19T01:13:04;11.60;;;2.87;;
22184;SDS011;11258;52.516;13.318;2023-04-19T01:15:30;7.33;;;2.80;;
22184;SDS011;11258;52.516;13.318;2023-04-19T01:17:56;7.63;;;2.87;;
22184;SDS011;11258;52.516;13.318;2023-04-19T01:20:22;7.80;;;2.80;;
22184;SDS011;11258;52.516;13.318;2023-04-19T01:22:47;5.37;;;2.93;;
22184;SDS011;11258;52.516;13.318;2023-04-19T01:25:13;9.03;;;2.80;;
22184;SDS011;11258;52.516;13.318;2023-04-19T01:27:39;6.00;;;3.13;;
22184;SDS011;11258;52.516;13.318;2023-04-19T01:30:05;7.43;;;2.80;;
22184;SDS011;11258;52.516;13.318;2023-04-19T01:32:31;8.03;;;2.73;;
22184;SDS011;11258;52.516;13.318;2023-04-19T01:34:56;6.73;;;2.80;;
22184;SDS011;11258;52.516;13.318;2023-04-19T01:37:22;6.10;;;2.70;;
22184;SDS011;11258;52.516;13.318;2023-04-19T01:39:48;6.97;;;3.23;;
22184;SDS011;11258;52.516;13.318;2023-04-19T01:42:13;4.13;;;2.70;;
22184;SDS011;11258;52.516;13.318;2023-04-19T01:44:39;5.10;;;2.37;;
22184;SDS011;11258;52.516;13.318;2023-04-19T01:47:05;4.07;;;2.10;;
22184;SDS011;11258;52.516;13.318;2023-04-19T01:49:30;4.70;;;2.47;;
22184;SDS011;11258;52.516;13.318;2023-04-19T01:51:56;5.57;;;2.87;;
22184;SDS011;11258;52.516;13.318;2023-04-19T01:54:22;4.33;;;2.33;;
22184;SDS011;11258;52.516;13.318;2023-04-19T01:56:47;6.00;;;2.50;;
22184;SDS011;11258;52.516;13.318;2023-04-19T01:59:13;4.57;;;2.43;;
22184;SDS011;11258;52.516;13.318;2023-04-19T02:01:38;4.20;;;2.10;;
22184;SDS011;11258;52.516;13.318;2023-04-19T02:04:05;7.00;;;3.50;;
22184;SDS011;11258;52.516;13.318;2023-04-19T02:06:31;5.63;;;3.10;;
22184;SDS011;11258;52.516;13.318;2023-04-19T02:08:57;5.27;;;3.10;;
22184;SDS011;11258;52.516;13.318;2023-04-19T02:11:23;5.17;;;2.70;;
22184;SDS011;11258;52.516;13.318;2023-04-19T02:13:48;4.30;;;2.63;;
22184;SDS011;11258;52.516;13.318;2023-04-19T02:16:14;4.53;;;2.57;;
22184;SDS011;11258;52.516;13.318;2023-04-19T02:18:39;5.70;;;2.33;;
22184;SDS011;11258;52.516;13.318;2023-04-19T02:21:06;4.30;;;2.23;;
22184;SDS011;11258;52.516;13.318;2023-04-19T02:23:32;4.40;;;2.50;;
22184;SDS011;11258;52.516;13.318;2023-04-19T02:25:59;4.30;;;2.40;;
22184;SDS011;11258;52.516;13.318;2023-04-19T02:28:30;5.40;;;3.10;;
22184;SDS011;11258;52.516;13.318;2023-04-19T02:30:57;3.17;;;2.30;;
22184;SDS011;11258;52.516;13.318;2023-04-19T02:33:24;5.80;;;2.00;;
22184;SDS011;11258;52.516;13.318;2023-04-19T02:35:51;7.67;;;2.93;;
22184;SDS011;11258;52.516;13.318;2023-04-19T02:38:16;5.10;;;2.53;;
22184;SDS011;11258;52.516;13.318;2023-04-19T02:40:42;4.53;;;2.40;;
22184;SDS011;11258;52.516;13.318;2023-04-19T02:43:08;5.80;;;2.70;;
22184;SDS011;11258;52.516;13.318;2023-04-19T02:45:33;3.87;;;3.00;;
22184;SDS011;11258;52.516;13.318;2023-04-19T02:47:59;6.30;;;2.77;;
22184;SDS011;11258;52.516;13.318;2023-04-19T02:50:25;4.63;;;2.50;;
22184;SDS011;11258;52.516;13.318;2023-04-19T02:52:51;5.13;;;2.83;;
22184;SDS011;11258;52.516;13.318;2023-04-19T02:55:17;6.20;;;2.60;;
22184;SDS011;11258;52.516;13.318;2023-04-19T02:57:43;3.57;;;2.47;;
22184;SDS011;11258;52.516;13.318;2023-04-19T03:00:08;4.77;;;2.93;;
22184;SDS011;11258;52.516;13.318;2023-04-19T03:02:35;3.63;;;2.13;;
22184;SDS011;11258;52.516;13.318;2023-04-19T03:05:01;3.10;;;2.33;;
22184;SDS011;11258;52.516;13.318;2023-04-19T03:07:27;3.63;;;2.10;;
22184;SDS011;11258;52.516;13.318;2023-04-19T03:09:53;3.53;;;2.10;;
22184;SDS011;11258;52.516;13.318;2023-04-19T03:12:19;3.90;;;2.07;;
22184;SDS011;11258;52.516;13.318;2023-04-19T03:14:45;4.40;;;2.23;;
22184;SDS011;11258;52.516;13.318;2023-04-19T03:17:10;5.37;;;2.07;;
22184;SDS011;11258;52.516;13.318;2023-04-19T03:19:36;6.73;;;3.47;;
22184;SDS011;11258;52.516;13.318;2023-04-19T03:22:01;3.63;;;2.17;;
22184;SDS011;11258;52.516;13.318;2023-04-19T03:24:27;4.03;;;2.13;;
22184;SDS011;11258;52.516;13.318;2023-04-19T03:26:54;3.80;;;2.17;;
22184;SDS011;11258;52.516;13.318;2023-04-19T03:29:23;3.43;;;2.00;;
22184;SDS011;11258;52.516;13.318;2023-04-19T03:31:48;3.10;;;2.03;;
22184;SDS011;11258;52.516;13.318;2023-04-19T03:34:14;6.93;;;2.70;;
22184;SDS011;11258;52.516;13.318;2023-04-19T03:36:40;5.17;;;2.60;;
22184;SDS011;11258;52.516;13.318;2023-04-19T03:39:05;6.37;;;2.30;;
22184;SDS011;11258;52.516;13.318;2023-04-19T03:41:31;3.87;;;2.33;;
22184;SDS011;11258;52.516;13.318;2023-04-19T03:43:57;3.67;;;2.27;;
22184;SDS011;11258;52.516;13.318;2023-04-19T03:46:23;5.13;;;2.53;;
22184;SDS011;11258;52.516;13.318;2023-04-19T03:48:49;5.17;;;2.27;;
22184;SDS011;11258;52.516;13.318;2023-04-19T03:51:15;9.00;;;2.73;;
22184;SDS011;11258;52.516;13.318;2023-04-19T03:53:41;3.90;;;2.27;;
22184;SDS011;11258;52.516;13.318;2023-04-19T03:56:07;3.83;;;2.10;;
22184;SDS011;11258;52.516;13.318;2023-04-19T03:58:32;2.77;;;1.97;;
22184;SDS011;11258;52.516;13.318;2023-04-19T04:00:58;6.23;;;2.30;;
22184;SDS011;11258;52.516;13.318;2023-04-19T04:03:25;4.23;;;2.47;;
22184;SDS011;11258;52.516;13.318;2023-04-19T04:05:51;6.10;;;2.53;;
22184;SDS011;11258;52.516;13.318;2023-04-19T04:08:16;3.23;;;2.07;;
22184;SDS011;11258;52.516;13.318;2023-04-19T04:10:42;3.30;;;2.10;;
22184;SDS011;11258;52.516;13.318;2023-04-19T04:13:08;4.80;;;2.80;;
22184;SDS011;11258;52.516;13.318;2023-04-19T04:15:33;4.27;;;2.70;;
22184;SDS011;11258;52.516;13.318;2023-04-19T04:17:59;5.97;;;2.50;;
22184;SDS011;11258;52.516;13.318;2023-04-19T04:20:25;5.50;;;1.97;;
22184;SDS011;11258;52.516;13.318;2023-04-19T04:22:51;7.53;;;2.40;;
22184;SDS011;11258;52.516;13.318;2023-04-19T04:25:16;6.90;;;2.90;;
22184;SDS011;11258;52.516;13.318;2023-04-19T04:27:42;5.07;;;2.43;;
22184;SDS011;11258;52.516;13.318;2023-04-19T04:30:08;4.97;;;2.47;;
22184;SDS011;11258;52.516;13.318;2023-04-19T04:32:35;5.27;;;2.60;;
22184;SDS011;11258;52.516;13.318;2023-04-19T04:35:02;6.20;;;2.90;;
22184;SDS011;11258;52.516;13.318;2023-04-19T04:37:32;6.27;;;2.80;;
22184;SDS011;11258;52.516;13.318;2023-04-19T04:39:59;3.50;;;2.20;;
22184;SDS011;11258;52.516;13.318;2023-04-19T04:42:25;5.63;;;1.80;;
22184;SDS011;11258;52.516;13.318;2023-04-19T04:44:52;6.60;;;2.20;;
22184;SDS011;11258;52.516;13.318;2023-04-19T04:47:21;6.23;;;3.07;;
22184;SDS011;11258;52.516;13.318;2023-04-19T04:49:47;4.10;;;2.20;;
22184;SDS011;11258;52.516;13.318;2023-04-19T04:52:13;4.17;;;2.20;;
22184;SDS011;11258;52.516;13.318;2023-04-19T04:54:39;5.75;;;2.17;;
22184;SDS011;11258;52.516;13.318;2023-04-19T04:57:05;4.85;;;1.98;;
22184;SDS011;11258;52.516;13.318;2023-04-19T04:59:31;3.40;;;1.70;;
22184;SDS011;11258;52.516;13.318;2023-04-19T05:01:56;7.38;;;2.25;;
22184;SDS011;11258;52.516;13.318;2023-04-19T05:04:22;5.20;;;2.10;;
22184;SDS011;11258;52.516;13.318;2023-04-19T05:06:48;4.53;;;1.80;;
22184;SDS011;11258;52.516;13.318;2023-04-19T05:09:14;2.25;;;1.50;;
22184;SDS011;11258;52.516;13.318;2023-04-19T05:11:39;4.68;;;2.03;;
22184;SDS011;11258;52.516;13.318;2023-04-19T05:14:05;3.53;;;1.92;;
22184;SDS011;11258;52.516;13.318;2023-04-19T05:16:31;3.60;;;1.70;;
22184;SDS011;11258;52.516;13.318;2023-04-19T05:18:57;5.90;;;1.88;;
22184;SDS011;11258;52.516;13.318;2023-04-19T05:21:22;4.20;;;2.08;;
22184;SDS011;11258;52.516;13.318;2023-04-19T05:23:48;3.50;;;1.45;;
22184;SDS011;11258;52.516;13.318;2023-04-19T05:26:14;3.85;;;2.10;;
22184;SDS011;11258;52.516;13.318;2023-04-19T05:28:40;4.28;;;1.90;;
22184;SDS011;11258;52.516;13.318;2023-04-19T05:31:09;3.22;;;1.92;;
22184;SDS011;11258;52.516;13.318;2023-04-19T05:33:35;3.53;;;2.00;;
22184;SDS011;11258;52.516;13.318;2023-04-19T05:36:00;6.60;;;2.15;;
22184;SDS011;11258;52.516;13.318;2023-04-19T05:38:26;5.65;;;1.90;;
22184;SDS011;11258;52.516;13.318;2023-04-19T05:40:52;4.97;;;2.00;;
22184;SDS011;11258;52.516;13.318;2023-04-19T05:43:17;5.95;;;1.80;;
22184;SDS011;11258;52.516;13.318;2023-04-19T05:45:43;4.18;;;1.98;;
22184;SDS011;11258;52.516;13.318;2023-04-19T05:48:08;3.45;;;1.88;;
22184;SDS011;11258;52.516;13.318;2023-04-19T05:50:34;3.67;;;2.10;;
22184;SDS011;11258;52.516;13.318;2023-04-19T05:53:00;4.65;;;1.98;;
22184;SDS011;11258;52.516;13.318;2023-04-19T05:55:27;4.63;;;1.92;;
22184;SDS011;11258;52.516;13.318;2023-04-19T05:57:52;2.45;;;1.42;;
22184;SDS011;11258;52.516;13.318;2023-04-19T06:00:18;5.28;;;1.98;;
22184;SDS011;11258;52.516;13.318;2023-04-19T06:02:44;3.70;;;2.10;;
22184;SDS011;11258;52.516;13.318;2023-04-19T06:05:09;4.38;;;1.85;;
22184;SDS011;11258;52.516;13.318;2023-04-19T06:07:35;5.20;;;1.90;;
22184;SDS011;11258;52.516;13.318;2023-04-19T06:10:00;3.10;;;1.50;;
22184;SDS011;11258;52.516;13.318;2023-04-19T06:12:26;5.35;;;1.60;;
22184;SDS011;11258;52.516;13.318;2023-04-19T06:14:52;4.53;;;2.60;;
22184;SDS011;11258;52.516;13.318;2023-04-19T06:17:18;3.92;;;1.63;;
22184;SDS011;11258;52.516;13.318;2023-04-19T06:19:48;2.53;;;1.45;;
22184;SDS011;11258;52.516;13.318;2023-04-19T06:22:14;4.85;;;1.90;;
22184;SDS011;11258;52.516;13.318;2023-04-19T06:24:40;4.72;;;1.65;;
22184;SDS011;11258;52.516;13.318;2023-04-19T06:27:08;4.57;;;2.08;;
22184;SDS011;11258;52.516;13.318;2023-04-19T06:29:33;2.72;;;1.77;;
22184;SDS011;11258;52.516;13.318;2023-04-19T06:31:59;3.22;;;1.88;;
22184;SDS011;11258;52.516;13.318;2023-04-19T06:34:24;5.88;;;1.63;;
22184;SDS011;11258;52.516;13.318;2023-04-19T06:36:50;3.85;;;1.77;;
22184;SDS011;11258;52.516;13.318;2023-04-19T06:39:16;4.10;;;1.92;;
22184;SDS011;11258;52.516;13.318;2023-04-19T06:41:41;4.28;;;2.13;;
22184;SDS011;11258;52.516;13.318;2023-04-19T06:44:07;3.42;;;1.98;;
22184;SDS011;11258;52.516;13.318;2023-04-19T06:46:33;3.28;;;1.42;;
22184;SDS011;11258;52.516;13.318;2023-04-19T06:48:58;4.63;;;1.50;;
22184;SDS011;11258;52.516;13.318;2023-04-19T06:51:24;2.10;;;1.33;;
22184;SDS011;11258;52.516;13.318;2023-04-19T06:53:49;4.78;;;1.67;;
22184;SDS011;11258;52.516;13.318;2023-04-19T06:56:15;2.28;;;1.42;;
22184;SDS011;11258;52.516;13.318;2023-04-19T06:58:41;4.28;;;1.70;;
22184;SDS011;11258;52.516;13.318;2023-04-19T07:01:06;3.03;;;1.70;;
22184;SDS011;11258;52.516;13.318;2023-04-19T07:03:32;3.95;;;1.77;;
22184;SDS011;11258;52.516;13.318;2023-04-19T07:05:58;2.50;;;1.38;;
22184;SDS011;11258;52.516;13.318;2023-04-19T07:08:23;5.28;;;1.70;;
22184;SDS011;11258;52.516;13.318;2023-04-19T07:10:50;3.00;;;1.58;;
22184;SDS011;11258;52.516;13.318;2023-04-19T07:13:17;3.53;;;1.73;;
22184;SDS011;11258;52.516;13.318;2023-04-19T07:15:42;3.40;;;1.75;;
22184;SDS011;11258;52.516;13.318;2023-04-19T07:18:08;4.13;;;1.40;;
22184;SDS011;11258;52.516;13.318;2023-04-19T07:20:38;3.22;;;1.48;;
22184;SDS011;11258;52.516;13.318;2023-04-19T07:23:08;6.53;;;2.00;;
22184;SDS011;11258;52.516;13.318;2023-04-19T07:25:34;4.50;;;1.98;;
22184;SDS011;11258;52.516;13.318;2023-04-19T07:28:00;4.78;;;1.80;;
22184;SDS011;11258;52.516;13.318;2023-04-19T07:30:25;5.47;;;2.25;;
22184;SDS011;11258;52.516;13.318;2023-04-19T07:32:51;2.63;;;1.80;;
22184;SDS011;11258;52.516;13.318;2023-04-19T07:35:17;3.33;;;1.50;;
22184;SDS011;11258;52.516;13.318;2023-04-19T07:37:43;5.28;;;2.00;;
22184;SDS011;11258;52.516;13.318;2023-04-19T07:40:09;5.40;;;1.70;;
22184;SDS011;11258;52.516;13.318;2023-04-19T07:42:35;3.75;;;1.55;;
22184;SDS011;11258;52.516;13.318;2023-04-19T07:45:01;3.72;;;1.60;;
22184;SDS011;11258;52.516;13.318;2023-04-19T07:47:26;1.73;;;1.45;;
22184;SDS011;11258;52.516;13.318;2023-04-19T07:49:52;4.38;;;1.90;;
22184;SDS011;11258;52.516;13.318;2023-04-19T07:52:19;3.42;;;2.58;;
22184;SDS011;11258;52.516;13.318;2023-04-19T07:54:45;4.05;;;1.92;;
22184;SDS011;11258;52.516;13.318;2023-04-19T07:57:11;3.53;;;2.08;;
22184;SDS011;11258;52.516;13.318;2023-04-19T07:59:36;4.43;;;2.22;;
22184;SDS011;11258;52.516;13.318;2023-04-19T08:02:02;4.07;;;1.83;;
22184;SDS011;11258;52.516;13.318;2023-04-19T08:04:27;4.75;;;2.22;;
22184;SDS011;11258;52.516;13.318;2023-04-19T08:06:53;3.97;;;1.83;;
22184;SDS011;11258;52.516;13.318;2023-04-19T08:09:19;4.53;;;1.80;;
22184;SDS011;11258;52.516;13.318;2023-04-19T08:11:44;8.65;;;3.50;;
22184;SDS011;11258;52.516;13.318;2023-04-19T08:14:10;5.97;;;2.15;;
22184;SDS011;11258;52.516;13.318;2023-04-19T08:16:36;4.03;;;1.80;;
22184;SDS011;11258;52.516;13.318;2023-04-19T08:19:01;4.50;;;1.95;;
22184;SDS011;11258;52.516;13.318;2023-04-19T08:21:27;4.47;;;1.63;;
22184;SDS011;11258;52.516;13.318;2023-04-19T08:23:53;5.22;;;1.80;;
22184;SDS011;11258;52.516;13.318;2023-04-19T08:26:18;3.45;;;1.85;;
22184;SDS011;11258;52.516;13.318;2023-04-19T08:28:44;4.88;;;1.90;;
22184;SDS011;11258;52.516;13.318;2023-04-19T08:31:09;3.85;;;2.08;;
22184;SDS011;11258;52.516;13.318;2023-04-19T08:33:35;2.88;;;1.70;;
22184;SDS011;11258;52.516;13.318;2023-04-19T08:36:01;2.95;;;2.15;;
22184;SDS011;11258;52.516;13.318;2023-04-19T08:38:26;8.60;;;4.10;;
22184;SDS011;11258;52.516;13.318;2023-04-19T08:40:52;5.40;;;2.78;;
22184;SDS011;11258;52.516;13.318;2023-04-19T08:43:21;4.68;;;2.53;;
22184;SDS011;11258;52.516;13.318;2023-04-19T08:45:49;4.05;;;2.28;;
22184;SDS011;11258;52.516;13.318;2023-04-19T08:48:15;6.47;;;3.17;;
22184;SDS011;11258;52.516;13.318;2023-04-19T08:50:42;4.97;;;2.85;;
22184;SDS011;11258;52.516;13.318;2023-04-19T08:53:10;9.02;;;5.90;;
22184;SDS011;11258;52.516;13.318;2023-04-19T08:55:37;9.30;;;4.35;;
22184;SDS011;11258;52.516;13.318;2023-04-19T08:58:04;9.32;;;3.28;;
22184;SDS011;11258;52.516;13.318;2023-04-19T09:00:36;5.88;;;2.25;;
22184;SDS011;11258;52.516;13.318;2023-04-19T09:03:03;3.90;;;2.15;;
22184;SDS011;11258;52.516;13.318;2023-04-19T09:05:31;5.07;;;2.33;;
22184;SDS011;11258;52.516;13.318;2023-04-19T09:11:00;5.05;;;2.22;;
22184;SDS011;11258;52.516;13.318;2023-04-19T09:13:26;3.97;;;2.08;;
22184;SDS011;11258;52.516;13.318;2023-04-19T09:15:53;5.65;;;2.78;;
22184;SDS011;11258;52.516;13.318;2023-04-19T09:18:21;7.32;;;3.25;;
22184;SDS011;11258;52.516;13.318;2023-04-19T09:20:48;5.78;;;2.33;;
22184;SDS011;11258;52.516;13.318;2023-04-19T09:23:15;5.40;;;2.15;;
22184;SDS011;11258;52.516;13.318;2023-04-19T09:25:52;8.63;;;2.75;;
22184;SDS011;11258;52.516;13.318;2023-04-19T09:28:21;6.88;;;2.70;;
22184;SDS011;11258;52.516;13.318;2023-04-19T09:30:47;3.63;;;2.22;;
22184;SDS011;11258;52.516;13.318;2023-04-19T09:33:13;8.30;;;2.53;;
22184;SDS011;11258;52.516;13.318;2023-04-19T09:35:57;9.20;;;2.47;;
22184;SDS011;11258;52.516;13.318;2023-04-19T09:38:24;3.13;;;2.30;;
22184;SDS011;11258;52.516;13.318;2023-04-19T09:40:50;6.20;;;2.20;;
22184;SDS011;11258;52.516;13.318;2023-04-19T09:43:22;5.63;;;2.13;;
22184;SDS011;11258;52.516;13.318;2023-04-19T09:45:49;6.25;;;2.28;;
22184;SDS011;11258;52.516;13.318;2023-04-19T09:48:15;8.45;;;2.67;;
22184;SDS011;11258;52.516;13.318;2023-04-19T09:50:54;4.65;;;2.00;;
22184;SDS011;11258;52.516;13.318;2023-04-19T09:53:25;4.28;;;2.20;;
22184;SDS011;11258;52.516;13.318;2023-04-19T09:55:51;5.32;;;2.60;;
22184;SDS011;11258;52.516;13.318;2023-04-19T09:58:19;3.38;;;1.92;;
22184;SDS011;11258;52.516;13.318;2023-04-19T10:00:45;5.07;;;2.70;;
22184;SDS011;11258;52.516;13.318;2023-04-19T10:03:15;3.85;;;2.33;;
22184;SDS011;11258;52.516;13.318;2023-04-19T10:05:42;4.68;;;2.40;;
22184;SDS011;11258;52.516;13.318;2023-04-19T10:08:09;5.03;;;2.50;;
22184;SDS011;11258;52.516;13.318;2023-04-19T10:10:36;5.35;;;2.33;;
22184;SDS011;11258;52.516;13.318;2023-04-19T10:13:05;5.88;;;2.70;;
22184;SDS011;11258;52.516;13.318;2023-04-19T10:15:35;5.03;;;2.30;;
22184;SDS011;11258;52.516;13.318;2023-04-19T10:18:04;8.60;;;2.42;;
22184;SDS011;11258;52.516;13.318;2023-04-19T10:20:32;7.07;;;2.70;;
22184;SDS011;11258;52.516;13.318;2023-04-19T10:23:06;5.60;;;2.10;;
22184;SDS011;11258;52.516;13.318;2023-04-19T10:25:35;7.05;;;2.45;;
22184;SDS011;11258;52.516;13.318;2023-04-19T10:28:01;6.18;;;2.80;;
22184;SDS011;11258;52.516;13.318;2023-04-19T10:30:27;4.00;;;2.80;;
22184;SDS011;11258;52.516;13.318;2023-04-19T10:32:53;5.65;;;2.60;;
22184;SDS011;11258;52.516;13.318;2023-04-19T10:38:03;9.10;;;3.25;;
22184;SDS011;11258;52.516;13.318;2023-04-19T10:43:16;8.90;;;3.28;;
22184;SDS011;11258;52.516;13.318;2023-04-19T10:45:42;5.40;;;2.63;;
22184;SDS011;11258;52.516;13.318;2023-04-19T10:50:59;6.40;;;2.33;;
22184;SDS011;11258;52.516;13.318;2023-04-19T10:53:51;7.10;;;2.63;;
22184;SDS011;11258;52.516;13.318;2023-04-19T11:12:06;3.95;;;2.50;;
22184;SDS011;11258;52.516;13.318;2023-04-19T11:14:38;5.88;;;3.25;;
22184;SDS011;11258;52.516;13.318;2023-04-19T11:19:44;4.25;;;2.17;;
22184;SDS011;11258;52.516;13.318;2023-04-19T11:22:16;3.88;;;2.20;;
22184;SDS011;11258;52.516;13.318;2023-04-19T11:24:45;9.73;;;2.90;;
22184;SDS011;11258;52.516;13.318;2023-04-19T11:27:13;6.60;;;2.50;;
22184;SDS011;11258;52.516;13.318;2023-04-19T11:29:39;8.77;;;3.10;;
22184;SDS011;11258;52.516;13.318;2023-04-19T11:32:05;6.32;;;2.95;;
22184;SDS011;11258;52.516;13.318;2023-04-19T11:34:37;3.97;;;2.45;;
22184;SDS011;11258;52.516;13.318;2023-04-19T11:37:06;8.07;;;2.92;;
22184;SDS011;11258;52.516;13.318;2023-04-19T11:39:32;7.93;;;3.33;;
22184;SDS011;11258;52.516;13.318;2023-04-19T11:41:58;6.20;;;2.72;;
22184;SDS011;11258;52.516;13.318;2023-04-19T11:44:23;4.70;;;2.78;;
22184;SDS011;11258;52.516;13.318;2023-04-19T11:47:10;8.35;;;2.78;;
22184;SDS011;11258;52.516;13.318;2023-04-19T11:49:35;5.60;;;2.20;;
22184;SDS011;11258;52.516;13.318;2023-04-19T11:52:01;7.43;;;2.45;;
22184;SDS011;11258;52.516;13.318;2023-04-19T11:54:30;3.63;;;2.47;;
22184;SDS011;11258;52.516;13.318;2023-04-19T11:57:05;4.13;;;2.47;;
22184;SDS011;11258;52.516;13.318;2023-04-19T11:59:32;5.90;;;2.95;;
22184;SDS011;11258;52.516;13.318;2023-04-19T12:02:10;5.03;;;2.47;;
22184;SDS011;11258;52.516;13.318;2023-04-19T12:04:36;6.40;;;2.72;;
22184;SDS011;11258;52.516;13.318;2023-04-19T12:07:03;6.20;;;2.78;;
22184;SDS011;11258;52.516;13.318;2023-04-19T12:09:34;4.95;;;3.35;;
22184;SDS011;11258;52.516;13.318;2023-04-19T12:12:00;5.15;;;2.70;;
22184;SDS011;11258;52.516;13.318;2023-04-19T12:14:27;4.47;;;2.28;;
22184;SDS011;11258;52.516;13.318;2023-04-19T12:19:36;4.15;;;2.30;;
22184;SDS011;11258;52.516;13.318;2023-04-19T12:22:07;6.88;;;3.53;;
22184;SDS011;11258;52.516;13.318;2023-04-19T12:24:34;6.35;;;3.20;;
22184;SDS011;11258;52.516;13.318;2023-04-19T12:26:59;7.43;;;2.50;;
22184;SDS011;11258;52.516;13.318;2023-04-19T12:29:25;7.20;;;2.85;;
22184;SDS011;11258;52.516;13.318;2023-04-19T12:31:51;5.15;;;3.03;;
22184;SDS011;11258;52.516;13.318;2023-04-19T12:34:17;6.85;;;2.88;;
22184;SDS011;11258;52.516;13.318;2023-04-19T12:36:43;8.70;;;3.00;;
22184;SDS011;11258;52.516;13.318;2023-04-19T12:39:08;7.60;;;3.22;;
22184;SDS011;11258;52.516;13.318;2023-04-19T12:41:34;12.70;;;3.45;;
22184;SDS011;11258;52.516;13.318;2023-04-19T12:44:00;7.35;;;2.97;;
22184;SDS011;11258;52.516;13.318;2023-04-19T12:46:25;5.80;;;2.60;;
22184;SDS011;11258;52.516;13.318;2023-04-19T12:48:51;6.22;;;2.75;;
22184;SDS011;11258;52.516;13.318;2023-04-19T12:51:16;4.45;;;2.90;;
22184;SDS011;11258;52.516;13.318;2023-04-19T12:53:46;4.75;;;2.58;;
22184;SDS011;11258;52.516;13.318;2023-04-19T12:56:13;5.57;;;3.20;;
22184;SDS011;11258;52.516;13.318;2023-04-19T12:58:39;6.65;;;3.03;;
22184;SDS011;11258;52.516;13.318;2023-04-19T13:01:05;7.70;;;3.17;;
22184;SDS011;11258;52.516;13.318;2023-04-19T13:03:31;5.22;;;2.80;;
22184;SDS011;11258;52.516;13.318;2023-04-19T13:06:00;7.30;;;3.35;;
22184;SDS011;11258;52.516;13.318;2023-04-19T13:08:26;7.63;;;2.97;;
22184;SDS011;11258;52.516;13.318;2023-04-19T13:10:52;4.88;;;3.47;;
22184;SDS011;11258;52.516;13.318;2023-04-19T13:13:19;4.78;;;2.97;;
22184;SDS011;11258;52.516;13.318;2023-04-19T13:15:44;8.07;;;3.63;;
22184;SDS011;11258;52.516;13.318;2023-04-19T13:18:10;4.35;;;2.97;;
22184;SDS011;11258;52.516;13.318;2023-04-19T13:20:36;5.00;;;2.55;;
22184;SDS011;11258;52.516;13.318;2023-04-19T13:23:02;8.15;;;2.70;;
22184;SDS011;11258;52.516;13.318;2023-04-19T13:25:27;4.93;;;2.70;;
22184;SDS011;11258;52.516;13.318;2023-04-19T13:27:53;7.15;;;3.05;;
22184;SDS011;11258;52.516;13.318;2023-04-19T13:30:18;6.20;;;2.85;;
22184;SDS011;11258;52.516;13.318;2023-04-19T13:32:44;7.47;;;3.15;;
22184;SDS011;11258;52.516;13.318;2023-04-19T13:35:10;8.18;;;3.17;;
22184;SDS011;11258;52.516;13.318;2023-04-19T13:37:35;7.32;;;2.90;;
22184;SDS011;11258;52.516;13.318;2023-04-19T13:40:01;5.30;;;2.83;;
22184;SDS011;11258;52.516;13.318;2023-04-19T13:42:28;3.13;;;2.40;;
22184;SDS011;11258;52.516;13.318;2023-04-19T13:44:54;7.97;;;2.75;;
22184;SDS011;11258;52.516;13.318;2023-04-19T13:47:20;10.50;;;3.05;;
22184;SDS011;11258;52.516;13.318;2023-04-19T13:49:45;5.63;;;3.42;;
22184;SDS011;11258;52.516;13.318;2023-04-19T13:52:16;8.65;;;3.30;;
22184;SDS011;11258;52.516;13.318;2023-04-19T13:54:44;7.65;;;3.15;;
22184;SDS011;11258;52.516;13.318;2023-04-19T13:57:10;8.93;;;4.22;;
22184;SDS011;11258;52.516;13.318;2023-04-19T13:59:36;7.93;;;3.17;;
22184;SDS011;11258;52.516;13.318;2023-04-19T14:02:02;5.32;;;2.38;;
22184;SDS011;11258;52.516;13.318;2023-04-19T14:04:28;5.60;;;2.72;;
22184;SDS011;11258;52.516;13.318;2023-04-19T14:06:54;6.97;;;2.83;;
22184;SDS011;11258;52.516;13.318;2023-04-19T14:09:20;6.78;;;3.63;;
22184;SDS011;11258;52.516;13.318;2023-04-19T14:11:46;6.10;;;3.23;;
22184;SDS011;11258;52.516;13.318;2023-04-19T14:14:13;8.02;;;2.70;;
22184;SDS011;11258;52.516;13.318;2023-04-19T14:16:39;5.43;;;3.15;;
22184;SDS011;11258;52.516;13.318;2023-04-19T14:19:05;5.65;;;2.75;;
22184;SDS011;11258;52.516;13.318;2023-04-19T14:21:31;10.07;;;2.85;;
22184;SDS011;11258;52.516;13.318;2023-04-19T14:23:57;6.32;;;3.03;;
22184;SDS011;11258;52.516;13.318;2023-04-19T14:26:23;6.90;;;3.63;;
22184;SDS011;11258;52.516;13.318;2023-04-19T14:28:48;8.40;;;4.30;;
22184;SDS011;11258;52.516;13.318;2023-04-19T14:31:14;7.93;;;3.40;;
22184;SDS011;11258;52.516;13.318;2023-04-19T14:33:39;8.02;;;3.63;;
22184;SDS011;11258;52.516;13.318;2023-04-19T14:36:05;9.35;;;3.67;;
22184;SDS011;11258;52.516;13.318;2023-04-19T14:38:31;9.32;;;3.50;;
22184;SDS011;11258;52.516;13.318;2023-04-19T14:40:57;7.20;;;3.40;;
22184;SDS011;11258;52.516;13.318;2023-04-19T14:43:23;9.18;;;3.72;;
22184;SDS011;11258;52.516;13.318;2023-04-19T14:45:49;6.53;;;3.58;;
22184;SDS011;11258;52.516;13.318;2023-04-19T14:48:15;5.75;;;3.63;;
22184;SDS011;11258;52.516;13.318;2023-04-19T14:50:41;8.30;;;4.30;;
22184;SDS011;11258;52.516;13.318;2023-04-19T14:53:07;10.60;;;4.40;;
22184;SDS011;11258;52.516;13.318;2023-04-19T14:55:33;11.15;;;3.90;;
22184;SDS011;11258;52.516;13.318;2023-04-19T14:58:00;7.75;;;4.03;;
22184;SDS011;11258;52.516;13.318;2023-04-19T15:00:26;7.80;;;3.60;;